Seattle, WA (98113)

10:10 AM PST on December 09, 2016 (GMT -0800)
Greenwood | | Change Station

Elev 269 ft 47.69 °N, 122.36 °W | Updated 7 seconds ago

Rain
Rain
34.9 °F
Feels Like 35 °F
N
0.0
Wind Variable Wind from West

Today
High -- | Low -- °F
--% Chance of Precip.
Yesterday
High -- | Low -- °F
Precip. -- in
Pressure 30.00 in
Visibility 10.0 miles
Clouds Overcast 2200 ft
Windchill 35 °F
Dew Point 34 °F
Humidity 98%
Rainfall 0.05 in
Snow Depth Not available.
7:46 AM 4:17 PM
Waxing Gibbous, 76% visible
METAR KBFI 091753Z 13008KT 10SM -RA OVC022 01/01 A3000 RMK AO2 SLP158 P0003 60010 T00110006 10011 20000 51006
Pressure 30.00 in
Visibility 10.0 miles
Clouds Overcast 2200 ft
Windchill 35 °F
Dew Point 34 °F
Humidity 98%
Rainfall 0.05 in
Snow Depth Not available.
7:46 AM 4:17 PM
Waxing Gibbous, 76% visible
METAR KBFI 091753Z 13008KT 10SM -RA OVC022 01/01 A3000 RMK AO2 SLP158 P0003 60010 T00110006 10011 20000 51006

10-Day Weather Forecast

Almanac

Astronomy

Dec. 09, 2016 Rise Set
Actual Time
Civil Twilight
Nautical Twilight
Astronomical Twilight
Moon
Length of Visible Light
Length of Day
Tomorrow will be .
, % of the Moon is Illuminated

Today's Extremes

State Highs State Lows

Community

WunderPhotos

Upload Photos

1,956,499 photos uploaded!

WunderBlog® & News

Nearby

Air Quality

  Air Quality AQ Index Pollutant
Not available.

Snow Depth

Station Depth Elevation

Earthquake Activity

City Distance Mag. Time & Date
Minimum magnitude displayed is 2.5.

Coastal Water Temperatures

Place Temperature

Stations

Nearby Weather Stations

Station Location Temp. Windchill Dew Point Humidity Wind Precip. Elev Updated Type
                   

Watches & Warnings

There are currently no watches in effect.